sensor_id;sensor_type;location;lat;lon;timestamp;P1;durP1;ratioP1;P2;durP2;ratioP2
7201;SDS011;3642;52.506;13.304;2022-07-23T00:01:30;6.53;;;4.47;;
7201;SDS011;3642;52.506;13.304;2022-07-23T00:03:59;4.85;;;3.97;;
7201;SDS011;3642;52.506;13.304;2022-07-23T00:06:27;4.80;;;3.83;;
7201;SDS011;3642;52.506;13.304;2022-07-23T00:08:57;4.97;;;3.60;;
7201;SDS011;3642;52.506;13.304;2022-07-23T00:11:26;4.65;;;3.45;;
7201;SDS011;3642;52.506;13.304;2022-07-23T00:13:54;5.10;;;3.55;;
7201;SDS011;3642;52.506;13.304;2022-07-23T00:16:24;4.25;;;3.85;;
7201;SDS011;3642;52.506;13.304;2022-07-23T00:18:53;4.03;;;3.50;;
7201;SDS011;3642;52.506;13.304;2022-07-23T00:21:21;6.03;;;3.67;;
7201;SDS011;3642;52.506;13.304;2022-07-23T00:23:49;4.82;;;3.90;;
7201;SDS011;3642;52.506;13.304;2022-07-23T00:26:18;4.05;;;3.58;;
7201;SDS011;3642;52.506;13.304;2022-07-23T00:28:47;4.40;;;3.83;;
7201;SDS011;3642;52.506;13.304;2022-07-23T00:31:15;5.95;;;3.88;;
7201;SDS011;3642;52.506;13.304;2022-07-23T00:33:43;4.30;;;3.90;;
7201;SDS011;3642;52.506;13.304;2022-07-23T00:36:11;4.07;;;3.67;;
7201;SDS011;3642;52.506;13.304;2022-07-23T00:38:39;5.27;;;3.93;;
7201;SDS011;3642;52.506;13.304;2022-07-23T00:41:08;5.22;;;4.22;;
7201;SDS011;3642;52.506;13.304;2022-07-23T00:43:37;4.72;;;3.42;;
7201;SDS011;3642;52.506;13.304;2022-07-23T00:46:05;5.03;;;4.10;;
7201;SDS011;3642;52.506;13.304;2022-07-23T00:48:34;4.32;;;3.67;;
7201;SDS011;3642;52.506;13.304;2022-07-23T00:51:02;7.53;;;4.10;;
7201;SDS011;3642;52.506;13.304;2022-07-23T00:53:30;7.50;;;5.67;;
7201;SDS011;3642;52.506;13.304;2022-07-23T00:55:59;5.93;;;4.50;;
7201;SDS011;3642;52.506;13.304;2022-07-23T00:58:27;8.40;;;4.60;;
7201;SDS011;3642;52.506;13.304;2022-07-23T01:00:56;5.93;;;4.20;;
7201;SDS011;3642;52.506;13.304;2022-07-23T01:03:25;5.80;;;4.07;;
7201;SDS011;3642;52.506;13.304;2022-07-23T01:05:53;3.90;;;3.50;;
7201;SDS011;3642;52.506;13.304;2022-07-23T01:08:21;6.23;;;3.80;;
7201;SDS011;3642;52.506;13.304;2022-07-23T01:10:49;5.70;;;3.87;;
7201;SDS011;3642;52.506;13.304;2022-07-23T01:13:18;4.60;;;3.93;;
7201;SDS011;3642;52.506;13.304;2022-07-23T01:15:46;6.03;;;3.90;;
7201;SDS011;3642;52.506;13.304;2022-07-23T01:18:16;4.13;;;3.73;;
7201;SDS011;3642;52.506;13.304;2022-07-23T01:20:44;4.23;;;3.80;;
7201;SDS011;3642;52.506;13.304;2022-07-23T01:23:14;8.57;;;4.10;;
7201;SDS011;3642;52.506;13.304;2022-07-23T01:25:47;4.30;;;3.90;;
7201;SDS011;3642;52.506;13.304;2022-07-23T01:28:16;6.43;;;3.93;;
7201;SDS011;3642;52.506;13.304;2022-07-23T01:30:44;6.07;;;4.00;;
7201;SDS011;3642;52.506;13.304;2022-07-23T01:33:12;4.80;;;3.90;;
7201;SDS011;3642;52.506;13.304;2022-07-23T01:35:41;6.40;;;4.10;;
7201;SDS011;3642;52.506;13.304;2022-07-23T01:38:09;4.60;;;3.87;;
7201;SDS011;3642;52.506;13.304;2022-07-23T01:40:38;4.18;;;3.75;;
7201;SDS011;3642;52.506;13.304;2022-07-23T01:43:07;5.83;;;4.13;;
7201;SDS011;3642;52.506;13.304;2022-07-23T01:45:37;5.23;;;3.80;;
7201;SDS011;3642;52.506;13.304;2022-07-23T01:48:06;4.33;;;3.63;;
7201;SDS011;3642;52.506;13.304;2022-07-23T01:50:36;4.33;;;3.60;;
7201;SDS011;3642;52.506;13.304;2022-07-23T01:53:04;3.97;;;3.47;;
7201;SDS011;3642;52.506;13.304;2022-07-23T01:55:32;6.07;;;3.60;;
7201;SDS011;3642;52.506;13.304;2022-07-23T01:58:02;5.13;;;3.70;;
7201;SDS011;3642;52.506;13.304;2022-07-23T02:00:31;6.53;;;3.70;;
7201;SDS011;3642;52.506;13.304;2022-07-23T02:03:00;5.77;;;3.90;;
7201;SDS011;3642;52.506;13.304;2022-07-23T02:05:28;5.10;;;3.50;;
7201;SDS011;3642;52.506;13.304;2022-07-23T02:07:58;5.87;;;3.93;;
7201;SDS011;3642;52.506;13.304;2022-07-23T02:10:26;5.17;;;3.60;;
7201;SDS011;3642;52.506;13.304;2022-07-23T02:12:55;7.57;;;3.70;;
7201;SDS011;3642;52.506;13.304;2022-07-23T02:15:25;4.47;;;3.57;;
7201;SDS011;3642;52.506;13.304;2022-07-23T02:17:54;4.30;;;3.60;;
7201;SDS011;3642;52.506;13.304;2022-07-23T02:20:23;4.70;;;3.30;;
7201;SDS011;3642;52.506;13.304;2022-07-23T02:22:52;3.90;;;3.30;;
7201;SDS011;3642;52.506;13.304;2022-07-23T02:25:21;4.07;;;3.40;;
7201;SDS011;3642;52.506;13.304;2022-07-23T02:27:49;4.13;;;3.50;;
7201;SDS011;3642;52.506;13.304;2022-07-23T02:30:17;5.13;;;3.73;;
7201;SDS011;3642;52.506;13.304;2022-07-23T02:32:47;3.70;;;3.30;;
7201;SDS011;3642;52.506;13.304;2022-07-23T02:35:15;5.60;;;3.70;;
7201;SDS011;3642;52.506;13.304;2022-07-23T02:37:43;4.03;;;3.67;;
7201;SDS011;3642;52.506;13.304;2022-07-23T02:40:13;4.40;;;3.63;;
7201;SDS011;3642;52.506;13.304;2022-07-23T02:42:41;5.97;;;3.70;;
7201;SDS011;3642;52.506;13.304;2022-07-23T02:45:10;3.53;;;3.23;;
7201;SDS011;3642;52.506;13.304;2022-07-23T02:47:38;4.93;;;3.97;;
7201;SDS011;3642;52.506;13.304;2022-07-23T02:50:08;5.57;;;3.83;;
7201;SDS011;3642;52.506;13.304;2022-07-23T02:52:37;4.43;;;3.93;;
7201;SDS011;3642;52.506;13.304;2022-07-23T02:55:05;5.80;;;3.87;;
7201;SDS011;3642;52.506;13.304;2022-07-23T02:57:34;5.53;;;3.80;;
7201;SDS011;3642;52.506;13.304;2022-07-23T03:00:03;5.20;;;4.00;;
7201;SDS011;3642;52.506;13.304;2022-07-23T03:02:33;5.27;;;3.47;;
7201;SDS011;3642;52.506;13.304;2022-07-23T03:05:02;5.30;;;3.80;;
7201;SDS011;3642;52.506;13.304;2022-07-23T03:07:32;5.10;;;4.23;;
7201;SDS011;3642;52.506;13.304;2022-07-23T03:10:00;6.67;;;4.20;;
7201;SDS011;3642;52.506;13.304;2022-07-23T03:12:28;5.07;;;3.73;;
7201;SDS011;3642;52.506;13.304;2022-07-23T03:14:56;4.67;;;3.83;;
7201;SDS011;3642;52.506;13.304;2022-07-23T03:17:24;4.80;;;3.63;;
7201;SDS011;3642;52.506;13.304;2022-07-23T03:19:52;7.77;;;4.00;;
7201;SDS011;3642;52.506;13.304;2022-07-23T03:22:20;5.40;;;3.43;;
7201;SDS011;3642;52.506;13.304;2022-07-23T03:24:50;5.77;;;3.40;;
7201;SDS011;3642;52.506;13.304;2022-07-23T03:27:21;5.43;;;3.93;;
7201;SDS011;3642;52.506;13.304;2022-07-23T03:29:50;4.60;;;3.23;;
7201;SDS011;3642;52.506;13.304;2022-07-23T03:32:18;5.47;;;3.50;;
7201;SDS011;3642;52.506;13.304;2022-07-23T03:34:47;3.97;;;3.37;;
7201;SDS011;3642;52.506;13.304;2022-07-23T03:37:16;10.03;;;3.17;;
7201;SDS011;3642;52.506;13.304;2022-07-23T03:39:44;4.33;;;2.90;;
7201;SDS011;3642;52.506;13.304;2022-07-23T03:42:14;5.20;;;2.97;;
7201;SDS011;3642;52.506;13.304;2022-07-23T03:44:42;4.27;;;3.20;;
7201;SDS011;3642;52.506;13.304;2022-07-23T03:47:10;4.23;;;2.70;;
7201;SDS011;3642;52.506;13.304;2022-07-23T03:49:38;4.20;;;2.50;;
7201;SDS011;3642;52.506;13.304;2022-07-23T03:52:06;3.70;;;2.80;;
7201;SDS011;3642;52.506;13.304;2022-07-23T03:54:35;2.90;;;2.23;;
7201;SDS011;3642;52.506;13.304;2022-07-23T03:57:03;2.70;;;2.40;;
7201;SDS011;3642;52.506;13.304;2022-07-23T03:59:33;3.73;;;2.90;;
7201;SDS011;3642;52.506;13.304;2022-07-23T04:02:01;4.97;;;2.37;;
7201;SDS011;3642;52.506;13.304;2022-07-23T04:04:29;3.20;;;2.90;;
7201;SDS011;3642;52.506;13.304;2022-07-23T04:06:57;3.23;;;2.50;;
7201;SDS011;3642;52.506;13.304;2022-07-23T04:09:27;3.90;;;2.43;;
7201;SDS011;3642;52.506;13.304;2022-07-23T04:11:55;4.17;;;2.40;;
7201;SDS011;3642;52.506;13.304;2022-07-23T04:14:23;2.90;;;2.00;;
7201;SDS011;3642;52.506;13.304;2022-07-23T04:16:53;2.40;;;2.17;;
7201;SDS011;3642;52.506;13.304;2022-07-23T04:19:21;5.40;;;3.27;;
7201;SDS011;3642;52.506;13.304;2022-07-23T04:21:49;5.27;;;2.40;;
7201;SDS011;3642;52.506;13.304;2022-07-23T04:24:17;5.33;;;2.40;;
7201;SDS011;3642;52.506;13.304;2022-07-23T04:26:45;3.57;;;2.10;;
7201;SDS011;3642;52.506;13.304;2022-07-23T04:29:13;2.63;;;2.43;;
7201;SDS011;3642;52.506;13.304;2022-07-23T04:31:41;3.97;;;2.40;;
7201;SDS011;3642;52.506;13.304;2022-07-23T04:34:11;3.30;;;2.20;;
7201;SDS011;3642;52.506;13.304;2022-07-23T04:36:39;4.00;;;2.33;;
7201;SDS011;3642;52.506;13.304;2022-07-23T04:39:07;2.97;;;2.40;;
7201;SDS011;3642;52.506;13.304;2022-07-23T04:41:36;3.73;;;2.10;;
7201;SDS011;3642;52.506;13.304;2022-07-23T04:44:04;6.27;;;3.07;;
7201;SDS011;3642;52.506;13.304;2022-07-23T04:46:32;4.30;;;2.23;;
7201;SDS011;3642;52.506;13.304;2022-07-23T04:49:00;3.67;;;2.37;;
7201;SDS011;3642;52.506;13.304;2022-07-23T04:51:30;4.47;;;2.37;;
7201;SDS011;3642;52.506;13.304;2022-07-23T04:53:58;2.40;;;1.77;;
7201;SDS011;3642;52.506;13.304;2022-07-23T04:56:26;4.53;;;2.07;;
7201;SDS011;3642;52.506;13.304;2022-07-23T04:58:55;3.97;;;2.20;;
7201;SDS011;3642;52.506;13.304;2022-07-23T05:01:23;2.43;;;2.00;;
7201;SDS011;3642;52.506;13.304;2022-07-23T05:03:52;3.33;;;2.10;;
7201;SDS011;3642;52.506;13.304;2022-07-23T05:06:20;1.93;;;1.70;;
7201;SDS011;3642;52.506;13.304;2022-07-23T05:08:50;6.27;;;2.13;;
7201;SDS011;3642;52.506;13.304;2022-07-23T05:11:18;3.87;;;1.83;;
7201;SDS011;3642;52.506;13.304;2022-07-23T05:13:52;2.27;;;2.00;;
7201;SDS011;3642;52.506;13.304;2022-07-23T05:16:20;6.53;;;2.43;;
7201;SDS011;3642;52.506;13.304;2022-07-23T05:18:48;4.03;;;2.00;;
7201;SDS011;3642;52.506;13.304;2022-07-23T05:21:17;5.20;;;2.13;;
7201;SDS011;3642;52.506;13.304;2022-07-23T05:23:45;3.67;;;2.07;;
7201;SDS011;3642;52.506;13.304;2022-07-23T05:26:14;4.47;;;2.43;;
7201;SDS011;3642;52.506;13.304;2022-07-23T05:28:43;5.07;;;2.70;;
7201;SDS011;3642;52.506;13.304;2022-07-23T05:31:25;3.77;;;2.30;;
7201;SDS011;3642;52.506;13.304;2022-07-23T05:33:53;2.43;;;1.80;;
7201;SDS011;3642;52.506;13.304;2022-07-23T05:36:21;2.07;;;1.70;;
7201;SDS011;3642;52.506;13.304;2022-07-23T05:38:50;2.87;;;1.93;;
7201;SDS011;3642;52.506;13.304;2022-07-23T05:41:19;3.00;;;1.80;;
7201;SDS011;3642;52.506;13.304;2022-07-23T05:43:47;5.13;;;2.20;;
7201;SDS011;3642;52.506;13.304;2022-07-23T05:46:15;2.83;;;2.10;;
7201;SDS011;3642;52.506;13.304;2022-07-23T05:48:43;2.17;;;1.77;;
7201;SDS011;3642;52.506;13.304;2022-07-23T05:51:18;2.80;;;1.90;;
7201;SDS011;3642;52.506;13.304;2022-07-23T05:53:47;5.27;;;2.20;;
7201;SDS011;3642;52.506;13.304;2022-07-23T05:56:16;4.00;;;1.93;;
7201;SDS011;3642;52.506;13.304;2022-07-23T05:58:47;4.30;;;1.97;;
7201;SDS011;3642;52.506;13.304;2022-07-23T06:01:15;3.70;;;1.90;;
7201;SDS011;3642;52.506;13.304;2022-07-23T06:03:43;3.97;;;2.23;;
7201;SDS011;3642;52.506;13.304;2022-07-23T06:06:11;3.50;;;2.23;;
7201;SDS011;3642;52.506;13.304;2022-07-23T06:08:40;2.30;;;1.90;;
7201;SDS011;3642;52.506;13.304;2022-07-23T06:11:09;5.23;;;2.00;;
7201;SDS011;3642;52.506;13.304;2022-07-23T06:13:41;3.23;;;2.27;;
7201;SDS011;3642;52.506;13.304;2022-07-23T06:16:09;4.53;;;3.00;;
7201;SDS011;3642;52.506;13.304;2022-07-23T06:18:38;4.10;;;2.70;;
7201;SDS011;3642;52.506;13.304;2022-07-23T06:21:08;3.90;;;2.27;;
7201;SDS011;3642;52.506;13.304;2022-07-23T06:23:56;5.07;;;2.50;;
7201;SDS011;3642;52.506;13.304;2022-07-23T06:26:24;5.67;;;2.40;;
7201;SDS011;3642;52.506;13.304;2022-07-23T06:28:54;3.50;;;2.30;;
7201;SDS011;3642;52.506;13.304;2022-07-23T06:31:23;3.00;;;2.70;;
7201;SDS011;3642;52.506;13.304;2022-07-23T06:33:51;4.23;;;2.77;;
7201;SDS011;3642;52.506;13.304;2022-07-23T06:36:19;3.13;;;2.40;;
7201;SDS011;3642;52.506;13.304;2022-07-23T06:38:48;3.37;;;2.40;;
7201;SDS011;3642;52.506;13.304;2022-07-23T06:41:17;3.23;;;2.30;;
7201;SDS011;3642;52.506;13.304;2022-07-23T06:43:45;3.27;;;2.47;;
7201;SDS011;3642;52.506;13.304;2022-07-23T06:46:15;4.53;;;2.50;;
7201;SDS011;3642;52.506;13.304;2022-07-23T06:48:43;3.33;;;2.30;;
7201;SDS011;3642;52.506;13.304;2022-07-23T06:51:11;4.30;;;3.13;;
7201;SDS011;3642;52.506;13.304;2022-07-23T06:53:40;4.50;;;2.73;;
7201;SDS011;3642;52.506;13.304;2022-07-23T06:56:08;2.40;;;2.20;;
7201;SDS011;3642;52.506;13.304;2022-07-23T06:58:36;4.70;;;2.30;;
7201;SDS011;3642;52.506;13.304;2022-07-23T07:01:04;3.80;;;2.30;;
7201;SDS011;3642;52.506;13.304;2022-07-23T07:03:35;4.60;;;2.50;;
7201;SDS011;3642;52.506;13.304;2022-07-23T07:06:03;3.50;;;2.33;;
7201;SDS011;3642;52.506;13.304;2022-07-23T07:08:32;3.70;;;2.40;;
7201;SDS011;3642;52.506;13.304;2022-07-23T07:11:00;7.00;;;2.60;;
7201;SDS011;3642;52.506;13.304;2022-07-23T07:13:28;2.70;;;2.30;;
7201;SDS011;3642;52.506;13.304;2022-07-23T07:15:56;3.33;;;2.20;;
7201;SDS011;3642;52.506;13.304;2022-07-23T07:18:25;4.97;;;2.37;;
7201;SDS011;3642;52.506;13.304;2022-07-23T07:20:54;4.50;;;2.77;;
7201;SDS011;3642;52.506;13.304;2022-07-23T07:23:24;6.63;;;2.53;;
7201;SDS011;3642;52.506;13.304;2022-07-23T07:25:52;4.50;;;2.33;;
7201;SDS011;3642;52.506;13.304;2022-07-23T07:28:20;4.47;;;2.17;;
7201;SDS011;3642;52.506;13.304;2022-07-23T07:30:49;3.97;;;2.40;;
7201;SDS011;3642;52.506;13.304;2022-07-23T07:33:17;2.70;;;2.30;;
7201;SDS011;3642;52.506;13.304;2022-07-23T07:35:47;5.67;;;2.70;;
7201;SDS011;3642;52.506;13.304;2022-07-23T07:38:17;4.23;;;2.87;;
7201;SDS011;3642;52.506;13.304;2022-07-23T07:40:46;3.60;;;2.40;;
7201;SDS011;3642;52.506;13.304;2022-07-23T07:43:14;4.50;;;2.87;;
7201;SDS011;3642;52.506;13.304;2022-07-23T07:45:43;6.57;;;2.90;;
7201;SDS011;3642;52.506;13.304;2022-07-23T07:48:12;5.27;;;3.17;;
7201;SDS011;3642;52.506;13.304;2022-07-23T07:50:40;4.10;;;2.60;;
7201;SDS011;3642;52.506;13.304;2022-07-23T07:53:09;6.27;;;3.00;;
7201;SDS011;3642;52.506;13.304;2022-07-23T07:55:40;4.93;;;3.30;;
7201;SDS011;3642;52.506;13.304;2022-07-23T07:58:16;4.43;;;3.20;;
7201;SDS011;3642;52.506;13.304;2022-07-23T08:00:46;5.73;;;3.07;;
7201;SDS011;3642;52.506;13.304;2022-07-23T08:03:15;3.80;;;2.80;;
7201;SDS011;3642;52.506;13.304;2022-07-23T08:05:44;4.73;;;3.17;;
7201;SDS011;3642;52.506;13.304;2022-07-23T08:08:12;3.63;;;2.80;;
7201;SDS011;3642;52.506;13.304;2022-07-23T08:10:45;4.43;;;2.77;;
7201;SDS011;3642;52.506;13.304;2022-07-23T08:13:22;4.90;;;2.70;;
7201;SDS011;3642;52.506;13.304;2022-07-23T08:15:50;4.57;;;2.30;;
7201;SDS011;3642;52.506;13.304;2022-07-23T08:18:19;3.77;;;2.13;;
7201;SDS011;3642;52.506;13.304;2022-07-23T08:20:48;3.33;;;2.40;;
7201;SDS011;3642;52.506;13.304;2022-07-23T08:23:16;3.30;;;2.47;;
7201;SDS011;3642;52.506;13.304;2022-07-23T08:25:47;2.83;;;2.20;;
7201;SDS011;3642;52.506;13.304;2022-07-23T08:28:15;4.73;;;2.40;;
7201;SDS011;3642;52.506;13.304;2022-07-23T08:30:44;4.60;;;2.90;;
7201;SDS011;3642;52.506;13.304;2022-07-23T08:33:15;4.03;;;2.37;;
7201;SDS011;3642;52.506;13.304;2022-07-23T08:36:00;3.73;;;2.73;;
7201;SDS011;3642;52.506;13.304;2022-07-23T08:38:31;3.70;;;2.20;;
7201;SDS011;3642;52.506;13.304;2022-07-23T08:41:02;4.20;;;2.20;;
7201;SDS011;3642;52.506;13.304;2022-07-23T08:43:32;3.47;;;2.37;;
7201;SDS011;3642;52.506;13.304;2022-07-23T08:46:03;5.37;;;2.30;;
7201;SDS011;3642;52.506;13.304;2022-07-23T08:48:32;3.27;;;2.30;;
7201;SDS011;3642;52.506;13.304;2022-07-23T08:51:04;3.17;;;2.30;;
7201;SDS011;3642;52.506;13.304;2022-07-23T08:53:34;4.53;;;2.60;;
7201;SDS011;3642;52.506;13.304;2022-07-23T08:56:06;4.50;;;2.43;;
7201;SDS011;3642;52.506;13.304;2022-07-23T08:58:35;4.87;;;2.67;;
7201;SDS011;3642;52.506;13.304;2022-07-23T09:01:07;3.93;;;2.50;;
7201;SDS011;3642;52.506;13.304;2022-07-23T09:03:36;4.47;;;2.30;;
7201;SDS011;3642;52.506;13.304;2022-07-23T09:06:06;4.77;;;2.30;;
7201;SDS011;3642;52.506;13.304;2022-07-23T09:08:35;2.80;;;2.17;;
7201;SDS011;3642;52.506;13.304;2022-07-23T09:11:06;2.40;;;2.20;;
7201;SDS011;3642;52.506;13.304;2022-07-23T09:13:37;2.60;;;1.90;;
7201;SDS011;3642;52.506;13.304;2022-07-23T09:16:08;3.27;;;2.17;;
7201;SDS011;3642;52.506;13.304;2022-07-23T09:18:41;2.83;;;2.50;;
7201;SDS011;3642;52.506;13.304;2022-07-23T09:21:14;6.40;;;2.60;;
7201;SDS011;3642;52.506;13.304;2022-07-23T09:23:50;3.70;;;2.40;;
7201;SDS011;3642;52.506;13.304;2022-07-23T09:29:08;2.87;;;2.43;;
7201;SDS011;3642;52.506;13.304;2022-07-23T09:31:43;3.83;;;2.30;;
7201;SDS011;3642;52.506;13.304;2022-07-23T09:34:16;3.27;;;2.40;;
7201;SDS011;3642;52.506;13.304;2022-07-23T09:36:49;4.13;;;2.40;;
7201;SDS011;3642;52.506;13.304;2022-07-23T09:39:24;4.73;;;2.70;;
7201;SDS011;3642;52.506;13.304;2022-07-23T09:41:56;4.60;;;2.73;;
7201;SDS011;3642;52.506;13.304;2022-07-23T09:44:40;4.47;;;2.77;;
7201;SDS011;3642;52.506;13.304;2022-07-23T09:47:09;3.80;;;2.63;;
7201;SDS011;3642;52.506;13.304;2022-07-23T09:49:38;7.63;;;4.50;;
7201;SDS011;3642;52.506;13.304;2022-07-23T09:52:06;4.97;;;3.53;;
7201;SDS011;3642;52.506;13.304;2022-07-23T09:54:35;6.17;;;3.33;;
7201;SDS011;3642;52.506;13.304;2022-07-23T09:57:07;5.13;;;2.90;;
7201;SDS011;3642;52.506;13.304;2022-07-23T09:59:41;4.68;;;3.08;;
7201;SDS011;3642;52.506;13.304;2022-07-23T10:02:12;5.15;;;3.15;;
7201;SDS011;3642;52.506;13.304;2022-07-23T10:04:41;3.53;;;2.50;;
7201;SDS011;3642;52.506;13.304;2022-07-23T10:07:10;5.30;;;2.90;;
7201;SDS011;3642;52.506;13.304;2022-07-23T10:09:40;2.90;;;2.60;;
7201;SDS011;3642;52.506;13.304;2022-07-23T10:12:12;3.42;;;2.78;;
7201;SDS011;3642;52.506;13.304;2022-07-23T10:15:02;4.43;;;2.95;;
7201;SDS011;3642;52.506;13.304;2022-07-23T10:17:32;7.53;;;3.10;;
7201;SDS011;3642;52.506;13.304;2022-07-23T10:20:01;4.43;;;3.08;;
7201;SDS011;3642;52.506;13.304;2022-07-23T10:22:31;5.38;;;2.75;;
7201;SDS011;3642;52.506;13.304;2022-07-23T10:25:11;3.17;;;2.60;;
7201;SDS011;3642;52.506;13.304;2022-07-23T10:28:02;4.32;;;3.00;;
7201;SDS011;3642;52.506;13.304;2022-07-23T10:30:39;10.75;;;7.60;;
7201;SDS011;3642;52.506;13.304;2022-07-23T10:33:15;6.35;;;3.63;;
7201;SDS011;3642;52.506;13.304;2022-07-23T10:35:55;3.80;;;2.73;;
7201;SDS011;3642;52.506;13.304;2022-07-23T10:38:30;4.25;;;3.30;;
7201;SDS011;3642;52.506;13.304;2022-07-23T10:41:04;4.72;;;3.20;;
7201;SDS011;3642;52.506;13.304;2022-07-23T10:43:34;6.93;;;5.60;;
7201;SDS011;3642;52.506;13.304;2022-07-23T10:46:21;8.52;;;5.60;;
7201;SDS011;3642;52.506;13.304;2022-07-23T10:54:55;5.30;;;3.22;;
7201;SDS011;3642;52.506;13.304;2022-07-23T10:57:48;3.60;;;2.95;;
7201;SDS011;3642;52.506;13.304;2022-07-23T11:00:22;6.00;;;2.80;;
7201;SDS011;3642;52.506;13.304;2022-07-23T11:02:51;6.00;;;3.00;;
7201;SDS011;3642;52.506;13.304;2022-07-23T11:05:21;4.15;;;3.28;;
7201;SDS011;3642;52.506;13.304;2022-07-23T11:08:13;2.88;;;2.50;;
7201;SDS011;3642;52.506;13.304;2022-07-23T11:10:44;5.57;;;2.65;;
7201;SDS011;3642;52.506;13.304;2022-07-23T11:19:14;3.28;;;2.67;;
7201;SDS011;3642;52.506;13.304;2022-07-23T11:21:49;4.30;;;2.50;;
7201;SDS011;3642;52.506;13.304;2022-07-23T11:24:22;3.65;;;2.40;;
7201;SDS011;3642;52.506;13.304;2022-07-23T11:27:00;2.63;;;2.40;;
7201;SDS011;3642;52.506;13.304;2022-07-23T11:29:40;2.97;;;2.67;;
7201;SDS011;3642;52.506;13.304;2022-07-23T11:35:18;5.18;;;2.70;;
7201;SDS011;3642;52.506;13.304;2022-07-23T11:37:52;5.15;;;2.60;;
7201;SDS011;3642;52.506;13.304;2022-07-23T11:40:24;4.03;;;2.70;;
7201;SDS011;3642;52.506;13.304;2022-07-23T11:42:55;3.88;;;2.70;;
7201;SDS011;3642;52.506;13.304;2022-07-23T11:45:29;3.67;;;2.72;;
7201;SDS011;3642;52.506;13.304;2022-07-23T11:48:00;3.50;;;2.53;;
7201;SDS011;3642;52.506;13.304;2022-07-23T11:50:28;3.25;;;2.83;;
7201;SDS011;3642;52.506;13.304;2022-07-23T11:52:57;2.58;;;2.13;;
7201;SDS011;3642;52.506;13.304;2022-07-23T11:55:25;4.50;;;3.10;;
7201;SDS011;3642;52.506;13.304;2022-07-23T11:57:55;2.55;;;2.30;;
7201;SDS011;3642;52.506;13.304;2022-07-23T12:00:26;3.33;;;2.88;;
7201;SDS011;3642;52.506;13.304;2022-07-23T12:02:56;3.20;;;2.47;;
7201;SDS011;3642;52.506;13.304;2022-07-23T12:05:29;3.13;;;2.80;;
7201;SDS011;3642;52.506;13.304;2022-07-23T12:07:59;3.00;;;2.53;;
7201;SDS011;3642;52.506;13.304;2022-07-23T12:10:29;3.13;;;2.58;;
7201;SDS011;3642;52.506;13.304;2022-07-23T12:13:02;5.07;;;3.05;;
7201;SDS011;3642;52.506;13.304;2022-07-23T12:15:32;3.75;;;2.80;;
7201;SDS011;3642;52.506;13.304;2022-07-23T12:18:04;3.35;;;2.50;;
7201;SDS011;3642;52.506;13.304;2022-07-23T12:20:35;4.30;;;3.03;;
7201;SDS011;3642;52.506;13.304;2022-07-23T12:23:06;4.68;;;2.72;;
7201;SDS011;3642;52.506;13.304;2022-07-23T12:25:37;5.78;;;3.40;;
7201;SDS011;3642;52.506;13.304;2022-07-23T12:28:08;5.55;;;3.40;;
7201;SDS011;3642;52.506;13.304;2022-07-23T12:30:37;3.75;;;2.78;;
7201;SDS011;3642;52.506;13.304;2022-07-23T12:33:07;4.88;;;3.35;;
7201;SDS011;3642;52.506;13.304;2022-07-23T12:35:39;4.95;;;3.47;;
7201;SDS011;3642;52.506;13.304;2022-07-23T12:38:09;6.47;;;3.20;;
7201;SDS011;3642;52.506;13.304;2022-07-23T12:40:42;3.63;;;2.90;;
7201;SDS011;3642;52.506;13.304;2022-07-23T12:43:17;2.92;;;2.58;;
7201;SDS011;3642;52.506;13.304;2022-07-23T12:45:47;3.85;;;2.80;;
7201;SDS011;3642;52.506;13.304;2022-07-23T12:48:22;4.80;;;2.75;;
7201;SDS011;3642;52.506;13.304;2022-07-23T12:50:55;5.47;;;4.13;;
7201;SDS011;3642;52.506;13.304;2022-07-23T12:53:25;3.40;;;3.05;;
7201;SDS011;3642;52.506;13.304;2022-07-23T12:55:59;5.50;;;3.20;;
7201;SDS011;3642;52.506;13.304;2022-07-23T12:58:51;3.75;;;2.70;;
7201;SDS011;3642;52.506;13.304;2022-07-23T13:01:23;3.83;;;2.58;;
7201;SDS011;3642;52.506;13.304;2022-07-23T13:03:57;4.63;;;3.50;;
7201;SDS011;3642;52.506;13.304;2022-07-23T13:06:29;3.42;;;3.03;;
7201;SDS011;3642;52.506;13.304;2022-07-23T13:08:58;5.97;;;3.10;;
7201;SDS011;3642;52.506;13.304;2022-07-23T13:11:28;4.57;;;2.88;;
7201;SDS011;3642;52.506;13.304;2022-07-23T13:13:57;3.78;;;2.95;;
7201;SDS011;3642;52.506;13.304;2022-07-23T13:16:27;3.58;;;3.28;;
7201;SDS011;3642;52.506;13.304;2022-07-23T13:18:56;3.40;;;3.10;;
7201;SDS011;3642;52.506;13.304;2022-07-23T13:21:26;3.35;;;2.90;;
7201;SDS011;3642;52.506;13.304;2022-07-23T13:23:57;4.88;;;3.08;;
7201;SDS011;3642;52.506;13.304;2022-07-23T13:26:25;4.80;;;3.65;;
7201;SDS011;3642;52.506;13.304;2022-07-23T13:28:54;3.38;;;2.80;;
7201;SDS011;3642;52.506;13.304;2022-07-23T13:31:23;4.38;;;3.03;;
7201;SDS011;3642;52.506;13.304;2022-07-23T13:33:53;3.80;;;2.65;;
7201;SDS011;3642;52.506;13.304;2022-07-23T13:36:21;3.83;;;3.05;;
7201;SDS011;3642;52.506;13.304;2022-07-23T13:38:53;4.65;;;3.45;;
7201;SDS011;3642;52.506;13.304;2022-07-23T13:41:21;3.63;;;3.00;;
7201;SDS011;3642;52.506;13.304;2022-07-23T13:43:51;3.88;;;2.60;;
7201;SDS011;3642;52.506;13.304;2022-07-23T13:46:19;3.67;;;2.95;;
7201;SDS011;3642;52.506;13.304;2022-07-23T13:48:47;3.40;;;2.80;;
7201;SDS011;3642;52.506;13.304;2022-07-23T13:51:16;3.40;;;2.28;;
7201;SDS011;3642;52.506;13.304;2022-07-23T13:53:45;2.78;;;2.50;;
7201;SDS011;3642;52.506;13.304;2022-07-23T13:56:16;5.13;;;3.05;;
7201;SDS011;3642;52.506;13.304;2022-07-23T13:58:45;2.45;;;2.25;;
7201;SDS011;3642;52.506;13.304;2022-07-23T14:01:14;3.67;;;2.67;;
7201;SDS011;3642;52.506;13.304;2022-07-23T14:03:43;5.78;;;3.30;;
7201;SDS011;3642;52.506;13.304;2022-07-23T14:06:12;2.72;;;2.53;;
7201;SDS011;3642;52.506;13.304;2022-07-23T14:08:42;4.20;;;3.00;;
7201;SDS011;3642;52.506;13.304;2022-07-23T14:11:10;5.22;;;2.60;;
7201;SDS011;3642;52.506;13.304;2022-07-23T14:13:41;3.72;;;2.75;;
7201;SDS011;3642;52.506;13.304;2022-07-23T14:16:09;3.17;;;2.10;;
7201;SDS011;3642;52.506;13.304;2022-07-23T14:18:37;2.40;;;2.20;;
7201;SDS011;3642;52.506;13.304;2022-07-23T14:21:06;2.28;;;2.08;;
7201;SDS011;3642;52.506;13.304;2022-07-23T14:23:35;3.80;;;2.05;;
7201;SDS011;3642;52.506;13.304;2022-07-23T14:26:04;2.55;;;2.35;;
7201;SDS011;3642;52.506;13.304;2022-07-23T14:28:33;4.13;;;2.85;;
7201;SDS011;3642;52.506;13.304;2022-07-23T14:31:03;3.95;;;2.40;;
7201;SDS011;3642;52.506;13.304;2022-07-23T14:33:45;2.13;;;1.95;;
7201;SDS011;3642;52.506;13.304;2022-07-23T14:36:14;2.20;;;2.00;;
7201;SDS011;3642;52.506;13.304;2022-07-23T14:38:42;3.03;;;2.00;;
7201;SDS011;3642;52.506;13.304;2022-07-23T14:41:11;2.65;;;1.98;;
7201;SDS011;3642;52.506;13.304;2022-07-23T14:43:41;2.03;;;1.50;;
7201;SDS011;3642;52.506;13.304;2022-07-23T14:46:11;3.60;;;1.75;;
7201;SDS011;3642;52.506;13.304;2022-07-23T14:48:40;4.30;;;2.22;;
7201;SDS011;3642;52.506;13.304;2022-07-23T14:51:09;1.70;;;1.60;;
7201;SDS011;3642;52.506;13.304;2022-07-23T14:53:37;2.80;;;1.75;;
7201;SDS011;3642;52.506;13.304;2022-07-23T14:56:06;2.10;;;1.90;;
7201;SDS011;3642;52.506;13.304;2022-07-23T14:58:34;2.55;;;1.75;;
7201;SDS011;3642;52.506;13.304;2022-07-23T15:01:03;2.40;;;1.80;;
7201;SDS011;3642;52.506;13.304;2022-07-23T15:03:33;2.97;;;1.92;;
7201;SDS011;3642;52.506;13.304;2022-07-23T15:06:06;3.03;;;2.10;;
7201;SDS011;3642;52.506;13.304;2022-07-23T15:08:34;2.00;;;1.73;;
7201;SDS011;3642;52.506;13.304;2022-07-23T15:11:02;2.83;;;1.58;;
7201;SDS011;3642;52.506;13.304;2022-07-23T15:13:33;1.65;;;1.42;;
7201;SDS011;3642;52.506;13.304;2022-07-23T15:16:01;4.28;;;1.90;;
7201;SDS011;3642;52.506;13.304;2022-07-23T15:18:33;2.08;;;1.80;;
7201;SDS011;3642;52.506;13.304;2022-07-23T15:21:03;2.80;;;2.00;;
7201;SDS011;3642;52.506;13.304;2022-07-23T15:23:34;1.98;;;1.60;;
7201;SDS011;3642;52.506;13.304;2022-07-23T15:26:04;3.13;;;2.00;;
7201;SDS011;3642;52.506;13.304;2022-07-23T15:28:33;3.60;;;2.15;;
7201;SDS011;3642;52.506;13.304;2022-07-23T15:31:02;4.30;;;2.35;;
7201;SDS011;3642;52.506;13.304;2022-07-23T15:33:35;2.53;;;1.50;;
7201;SDS011;3642;52.506;13.304;2022-07-23T15:36:04;1.70;;;1.60;;